sensor_id;sensor_type;location;lat;lon;timestamp;P1;durP1;ratioP1;P2;durP2;ratioP2
10667;SDS011;5382;42.136;24.796;2023-05-16T00:01:55;43.13;;;34.33;;
10667;SDS011;5382;42.136;24.796;2023-05-16T00:04:23;41.03;;;33.83;;
10667;SDS011;5382;42.136;24.796;2023-05-16T00:06:50;45.03;;;34.38;;
10667;SDS011;5382;42.136;24.796;2023-05-16T00:09:17;44.42;;;34.22;;
10667;SDS011;5382;42.136;24.796;2023-05-16T00:11:44;42.67;;;34.80;;
10667;SDS011;5382;42.136;24.796;2023-05-16T00:14:12;41.42;;;34.45;;
10667;SDS011;5382;42.136;24.796;2023-05-16T00:16:39;41.92;;;34.65;;
10667;SDS011;5382;42.136;24.796;2023-05-16T00:19:06;43.35;;;35.50;;
10667;SDS011;5382;42.136;24.796;2023-05-16T00:21:34;42.33;;;35.28;;
10667;SDS011;5382;42.136;24.796;2023-05-16T00:24:01;39.20;;;31.52;;
10667;SDS011;5382;42.136;24.796;2023-05-16T00:26:28;42.53;;;32.65;;
10667;SDS011;5382;42.136;24.796;2023-05-16T00:28:55;43.45;;;36.60;;
10667;SDS011;5382;42.136;24.796;2023-05-16T00:31:25;42.67;;;35.22;;
10667;SDS011;5382;42.136;24.796;2023-05-16T00:33:51;43.67;;;34.47;;
10667;SDS011;5382;42.136;24.796;2023-05-16T00:36:18;46.53;;;38.20;;
10667;SDS011;5382;42.136;24.796;2023-05-16T00:38:47;42.72;;;35.40;;
10667;SDS011;5382;42.136;24.796;2023-05-16T00:41:16;44.55;;;37.20;;
10667;SDS011;5382;42.136;24.796;2023-05-16T00:43:43;40.70;;;35.67;;
10667;SDS011;5382;42.136;24.796;2023-05-16T00:46:10;47.30;;;36.83;;
10667;SDS011;5382;42.136;24.796;2023-05-16T00:48:36;44.10;;;37.22;;
10667;SDS011;5382;42.136;24.796;2023-05-16T00:51:03;44.55;;;36.55;;
10667;SDS011;5382;42.136;24.796;2023-05-16T00:53:33;44.08;;;35.88;;
10667;SDS011;5382;42.136;24.796;2023-05-16T00:56:02;42.30;;;36.25;;
10667;SDS011;5382;42.136;24.796;2023-05-16T00:58:30;45.92;;;36.35;;
10667;SDS011;5382;42.136;24.796;2023-05-16T01:00:58;43.10;;;35.28;;
10667;SDS011;5382;42.136;24.796;2023-05-16T01:03:26;50.63;;;36.55;;
10667;SDS011;5382;42.136;24.796;2023-05-16T01:05:53;46.05;;;36.65;;
10667;SDS011;5382;42.136;24.796;2023-05-16T01:08:20;44.85;;;36.15;;
10667;SDS011;5382;42.136;24.796;2023-05-16T01:10:48;48.13;;;35.80;;
10667;SDS011;5382;42.136;24.796;2023-05-16T01:13:21;46.80;;;36.72;;
10667;SDS011;5382;42.136;24.796;2023-05-16T01:15:55;42.20;;;35.95;;
10667;SDS011;5382;42.136;24.796;2023-05-16T01:18:31;43.78;;;35.80;;
10667;SDS011;5382;42.136;24.796;2023-05-16T01:21:03;46.60;;;35.88;;
10667;SDS011;5382;42.136;24.796;2023-05-16T01:23:39;50.55;;;37.20;;
10667;SDS011;5382;42.136;24.796;2023-05-16T01:26:15;42.85;;;35.30;;
10667;SDS011;5382;42.136;24.796;2023-05-16T01:28:45;42.85;;;29.77;;
10667;SDS011;5382;42.136;24.796;2023-05-16T01:31:13;45.20;;;37.42;;
10667;SDS011;5382;42.136;24.796;2023-05-16T01:33:42;46.58;;;36.40;;
10667;SDS011;5382;42.136;24.796;2023-05-16T01:36:11;45.55;;;37.40;;
10667;SDS011;5382;42.136;24.796;2023-05-16T01:38:44;46.60;;;37.08;;
10667;SDS011;5382;42.136;24.796;2023-05-16T01:41:19;50.22;;;38.00;;
10667;SDS011;5382;42.136;24.796;2023-05-16T01:43:51;48.85;;;38.33;;
10667;SDS011;5382;42.136;24.796;2023-05-16T01:46:24;49.72;;;39.03;;
10667;SDS011;5382;42.136;24.796;2023-05-16T01:48:56;44.53;;;37.47;;
10667;SDS011;5382;42.136;24.796;2023-05-16T01:51:28;49.33;;;38.13;;
10667;SDS011;5382;42.136;24.796;2023-05-16T01:53:57;41.33;;;35.42;;
10667;SDS011;5382;42.136;24.796;2023-05-16T01:56:30;41.60;;;35.83;;
10667;SDS011;5382;42.136;24.796;2023-05-16T01:58:58;45.90;;;37.78;;
10667;SDS011;5382;42.136;24.796;2023-05-16T02:01:26;48.08;;;36.00;;
10667;SDS011;5382;42.136;24.796;2023-05-16T02:03:57;43.08;;;35.42;;
10667;SDS011;5382;42.136;24.796;2023-05-16T02:06:24;44.58;;;35.88;;
10667;SDS011;5382;42.136;24.796;2023-05-16T02:08:51;43.97;;;36.17;;
10667;SDS011;5382;42.136;24.796;2023-05-16T02:11:18;42.65;;;35.90;;
10667;SDS011;5382;42.136;24.796;2023-05-16T02:13:47;43.50;;;35.85;;
10667;SDS011;5382;42.136;24.796;2023-05-16T02:16:14;42.88;;;37.08;;
10667;SDS011;5382;42.136;24.796;2023-05-16T02:18:41;47.40;;;37.72;;
10667;SDS011;5382;42.136;24.796;2023-05-16T02:21:09;45.40;;;37.70;;
10667;SDS011;5382;42.136;24.796;2023-05-16T02:23:35;43.63;;;37.08;;
10667;SDS011;5382;42.136;24.796;2023-05-16T02:26:02;45.60;;;38.83;;
10667;SDS011;5382;42.136;24.796;2023-05-16T02:28:29;51.47;;;36.63;;
10667;SDS011;5382;42.136;24.796;2023-05-16T02:30:57;46.80;;;37.00;;
10667;SDS011;5382;42.136;24.796;2023-05-16T02:33:25;42.30;;;35.28;;
10667;SDS011;5382;42.136;24.796;2023-05-16T02:35:52;44.47;;;35.58;;
10667;SDS011;5382;42.136;24.796;2023-05-16T02:38:19;41.58;;;35.78;;
10667;SDS011;5382;42.136;24.796;2023-05-16T02:40:46;45.42;;;36.55;;
10667;SDS011;5382;42.136;24.796;2023-05-16T02:43:13;45.30;;;36.38;;
10667;SDS011;5382;42.136;24.796;2023-05-16T02:45:40;44.20;;;35.58;;
10667;SDS011;5382;42.136;24.796;2023-05-16T02:48:08;43.50;;;35.45;;
10667;SDS011;5382;42.136;24.796;2023-05-16T02:50:36;42.45;;;35.03;;
10667;SDS011;5382;42.136;24.796;2023-05-16T02:53:04;44.58;;;36.13;;
10667;SDS011;5382;42.136;24.796;2023-05-16T02:55:31;44.13;;;35.67;;
10667;SDS011;5382;42.136;24.796;2023-05-16T02:57:58;45.58;;;38.00;;
10667;SDS011;5382;42.136;24.796;2023-05-16T03:00:24;47.97;;;36.25;;
10667;SDS011;5382;42.136;24.796;2023-05-16T03:02:51;42.38;;;35.95;;
10667;SDS011;5382;42.136;24.796;2023-05-16T03:05:19;45.40;;;35.55;;
10667;SDS011;5382;42.136;24.796;2023-05-16T03:07:46;47.80;;;33.13;;
10667;SDS011;5382;42.136;24.796;2023-05-16T03:10:13;48.47;;;37.97;;
10667;SDS011;5382;42.136;24.796;2023-05-16T03:12:40;49.72;;;39.97;;
10667;SDS011;5382;42.136;24.796;2023-05-16T03:15:07;52.75;;;39.60;;
10667;SDS011;5382;42.136;24.796;2023-05-16T03:17:35;48.50;;;39.50;;
10667;SDS011;5382;42.136;24.796;2023-05-16T03:20:02;49.80;;;38.45;;
10667;SDS011;5382;42.136;24.796;2023-05-16T03:22:30;52.30;;;39.60;;
10667;SDS011;5382;42.136;24.796;2023-05-16T03:24:57;51.95;;;39.75;;
10667;SDS011;5382;42.136;24.796;2023-05-16T03:27:24;47.28;;;39.08;;
10667;SDS011;5382;42.136;24.796;2023-05-16T03:29:52;51.55;;;39.17;;
10667;SDS011;5382;42.136;24.796;2023-05-16T03:32:20;50.92;;;40.25;;
10667;SDS011;5382;42.136;24.796;2023-05-16T03:34:47;49.45;;;39.50;;
10667;SDS011;5382;42.136;24.796;2023-05-16T03:37:13;44.88;;;31.50;;
10667;SDS011;5382;42.136;24.796;2023-05-16T03:39:42;45.42;;;37.75;;
10667;SDS011;5382;42.136;24.796;2023-05-16T03:42:09;48.05;;;37.58;;
10667;SDS011;5382;42.136;24.796;2023-05-16T03:44:36;46.92;;;37.08;;
10667;SDS011;5382;42.136;24.796;2023-05-16T03:47:03;47.88;;;38.65;;
10667;SDS011;5382;42.136;24.796;2023-05-16T03:49:30;47.83;;;38.42;;
10667;SDS011;5382;42.136;24.796;2023-05-16T03:51:57;44.63;;;38.65;;
10667;SDS011;5382;42.136;24.796;2023-05-16T03:54:24;48.05;;;39.28;;
10667;SDS011;5382;42.136;24.796;2023-05-16T03:56:52;47.53;;;38.60;;
10667;SDS011;5382;42.136;24.796;2023-05-16T03:59:19;45.03;;;36.58;;
10667;SDS011;5382;42.136;24.796;2023-05-16T04:01:46;43.53;;;36.65;;
10667;SDS011;5382;42.136;24.796;2023-05-16T04:04:13;44.03;;;37.17;;
10667;SDS011;5382;42.136;24.796;2023-05-16T04:06:39;43.80;;;36.40;;
10667;SDS011;5382;42.136;24.796;2023-05-16T04:09:06;42.60;;;35.50;;
10667;SDS011;5382;42.136;24.796;2023-05-16T04:11:33;43.67;;;36.58;;
10667;SDS011;5382;42.136;24.796;2023-05-16T04:14:02;42.13;;;36.22;;
10667;SDS011;5382;42.136;24.796;2023-05-16T04:16:28;49.20;;;36.42;;
10667;SDS011;5382;42.136;24.796;2023-05-16T04:18:55;43.65;;;35.08;;
10667;SDS011;5382;42.136;24.796;2023-05-16T04:21:23;42.22;;;33.67;;
10667;SDS011;5382;42.136;24.796;2023-05-16T04:23:50;39.95;;;31.98;;
10667;SDS011;5382;42.136;24.796;2023-05-16T04:26:17;43.00;;;32.15;;
10667;SDS011;5382;42.136;24.796;2023-05-16T04:28:46;35.47;;;30.70;;
10667;SDS011;5382;42.136;24.796;2023-05-16T04:31:14;38.03;;;29.75;;
10667;SDS011;5382;42.136;24.796;2023-05-16T04:33:40;41.25;;;30.45;;
10667;SDS011;5382;42.136;24.796;2023-05-16T04:36:07;34.22;;;23.38;;
10667;SDS011;5382;42.136;24.796;2023-05-16T04:38:34;35.85;;;30.02;;
10667;SDS011;5382;42.136;24.796;2023-05-16T04:41:01;38.30;;;29.98;;
10667;SDS011;5382;42.136;24.796;2023-05-16T04:43:28;31.83;;;28.33;;
10667;SDS011;5382;42.136;24.796;2023-05-16T04:45:56;41.90;;;28.40;;
10667;SDS011;5382;42.136;24.796;2023-05-16T04:48:25;35.10;;;26.58;;
10667;SDS011;5382;42.136;24.796;2023-05-16T04:50:52;31.58;;;26.95;;
10667;SDS011;5382;42.136;24.796;2023-05-16T04:53:19;32.35;;;24.45;;
10667;SDS011;5382;42.136;24.796;2023-05-16T04:55:46;28.95;;;23.80;;
10667;SDS011;5382;42.136;24.796;2023-05-16T04:58:13;27.52;;;24.38;;
10667;SDS011;5382;42.136;24.796;2023-05-16T05:00:40;26.52;;;23.00;;
10667;SDS011;5382;42.136;24.796;2023-05-16T05:03:07;27.88;;;22.48;;
10667;SDS011;5382;42.136;24.796;2023-05-16T05:05:35;26.10;;;21.88;;
10667;SDS011;5382;42.136;24.796;2023-05-16T05:08:01;24.63;;;22.00;;
10667;SDS011;5382;42.136;24.796;2023-05-16T05:10:28;28.45;;;22.70;;
10667;SDS011;5382;42.136;24.796;2023-05-16T05:12:56;23.25;;;20.77;;
10667;SDS011;5382;42.136;24.796;2023-05-16T05:15:23;25.15;;;20.98;;
10667;SDS011;5382;42.136;24.796;2023-05-16T05:17:50;27.10;;;17.90;;
10667;SDS011;5382;42.136;24.796;2023-05-16T05:20:16;27.40;;;20.55;;
10667;SDS011;5382;42.136;24.796;2023-05-16T05:22:45;24.00;;;19.80;;
10667;SDS011;5382;42.136;24.796;2023-05-16T05:25:11;22.02;;;19.65;;
10667;SDS011;5382;42.136;24.796;2023-05-16T05:27:39;22.40;;;19.23;;
10667;SDS011;5382;42.136;24.796;2023-05-16T05:30:06;24.15;;;20.08;;
10667;SDS011;5382;42.136;24.796;2023-05-16T05:32:33;23.48;;;19.70;;
10667;SDS011;5382;42.136;24.796;2023-05-16T05:35:00;23.38;;;19.05;;
10667;SDS011;5382;42.136;24.796;2023-05-16T05:37:28;21.38;;;19.08;;
10667;SDS011;5382;42.136;24.796;2023-05-16T05:39:56;19.58;;;17.45;;
10667;SDS011;5382;42.136;24.796;2023-05-16T05:42:23;20.63;;;17.80;;
10667;SDS011;5382;42.136;24.796;2023-05-16T05:44:50;19.85;;;17.80;;
10667;SDS011;5382;42.136;24.796;2023-05-16T05:47:17;19.38;;;17.45;;
10667;SDS011;5382;42.136;24.796;2023-05-16T05:49:44;17.98;;;16.15;;
10667;SDS011;5382;42.136;24.796;2023-05-16T05:52:10;18.13;;;15.80;;
10667;SDS011;5382;42.136;24.796;2023-05-16T05:54:37;16.48;;;13.55;;
10667;SDS011;5382;42.136;24.796;2023-05-16T05:57:06;14.75;;;11.75;;
10667;SDS011;5382;42.136;24.796;2023-05-16T05:59:33;11.60;;;10.50;;
10667;SDS011;5382;42.136;24.796;2023-05-16T06:01:59;11.10;;;9.90;;
10667;SDS011;5382;42.136;24.796;2023-05-16T06:04:26;13.15;;;11.38;;
10667;SDS011;5382;42.136;24.796;2023-05-16T06:06:53;12.10;;;10.10;;
10667;SDS011;5382;42.136;24.796;2023-05-16T06:09:20;14.38;;;10.77;;
10667;SDS011;5382;42.136;24.796;2023-05-16T06:11:48;14.57;;;10.73;;
10667;SDS011;5382;42.136;24.796;2023-05-16T06:14:16;12.20;;;10.77;;
10667;SDS011;5382;42.136;24.796;2023-05-16T06:16:43;13.23;;;11.85;;
10667;SDS011;5382;42.136;24.796;2023-05-16T06:19:10;13.15;;;11.95;;
10667;SDS011;5382;42.136;24.796;2023-05-16T06:21:40;14.70;;;12.27;;
10667;SDS011;5382;42.136;24.796;2023-05-16T06:24:06;13.45;;;12.13;;
10667;SDS011;5382;42.136;24.796;2023-05-16T06:26:34;13.55;;;12.25;;
10667;SDS011;5382;42.136;24.796;2023-05-16T06:29:01;15.60;;;12.63;;
10667;SDS011;5382;42.136;24.796;2023-05-16T06:31:29;16.63;;;11.07;;
10667;SDS011;5382;42.136;24.796;2023-05-16T06:33:57;13.32;;;12.07;;
10667;SDS011;5382;42.136;24.796;2023-05-16T06:36:23;13.15;;;11.77;;
10667;SDS011;5382;42.136;24.796;2023-05-16T06:38:50;14.48;;;12.35;;
10667;SDS011;5382;42.136;24.796;2023-05-16T06:41:17;13.63;;;12.43;;
10667;SDS011;5382;42.136;24.796;2023-05-16T06:43:44;13.30;;;11.90;;
10667;SDS011;5382;42.136;24.796;2023-05-16T06:46:10;14.13;;;12.55;;
10667;SDS011;5382;42.136;24.796;2023-05-16T06:48:39;14.68;;;13.20;;
10667;SDS011;5382;42.136;24.796;2023-05-16T06:51:05;14.75;;;13.02;;
10667;SDS011;5382;42.136;24.796;2023-05-16T06:53:32;15.30;;;13.75;;
10667;SDS011;5382;42.136;24.796;2023-05-16T06:55:59;14.27;;;12.32;;
10667;SDS011;5382;42.136;24.796;2023-05-16T06:58:26;13.02;;;11.82;;
10667;SDS011;5382;42.136;24.796;2023-05-16T07:00:53;14.00;;;12.68;;
10667;SDS011;5382;42.136;24.796;2023-05-16T07:03:19;15.82;;;11.65;;
10667;SDS011;5382;42.136;24.796;2023-05-16T07:05:47;13.88;;;12.48;;
10667;SDS011;5382;42.136;24.796;2023-05-16T07:08:17;14.93;;;11.95;;
10667;SDS011;5382;42.136;24.796;2023-05-16T07:10:43;16.80;;;11.38;;
10667;SDS011;5382;42.136;24.796;2023-05-16T07:13:10;14.55;;;11.68;;
10667;SDS011;5382;42.136;24.796;2023-05-16T07:15:37;14.45;;;11.50;;
10667;SDS011;5382;42.136;24.796;2023-05-16T07:18:04;12.80;;;11.15;;
10667;SDS011;5382;42.136;24.796;2023-05-16T07:20:31;13.10;;;11.77;;
10667;SDS011;5382;42.136;24.796;2023-05-16T07:22:59;13.27;;;11.43;;
10667;SDS011;5382;42.136;24.796;2023-05-16T07:25:26;11.98;;;10.85;;
10667;SDS011;5382;42.136;24.796;2023-05-16T07:27:52;12.82;;;11.50;;
10667;SDS011;5382;42.136;24.796;2023-05-16T07:30:19;13.07;;;11.52;;
10667;SDS011;5382;42.136;24.796;2023-05-16T07:32:46;12.82;;;11.30;;
10667;SDS011;5382;42.136;24.796;2023-05-16T07:35:13;12.60;;;11.30;;
10667;SDS011;5382;42.136;24.796;2023-05-16T07:37:40;14.20;;;10.93;;
10667;SDS011;5382;42.136;24.796;2023-05-16T07:40:09;14.80;;;11.05;;
10667;SDS011;5382;42.136;24.796;2023-05-16T07:42:36;12.45;;;11.25;;
10667;SDS011;5382;42.136;24.796;2023-05-16T07:45:04;14.27;;;11.30;;
10667;SDS011;5382;42.136;24.796;2023-05-16T07:47:32;12.43;;;11.02;;
10667;SDS011;5382;42.136;24.796;2023-05-16T07:49:59;12.05;;;10.80;;
10667;SDS011;5382;42.136;24.796;2023-05-16T07:52:26;15.27;;;11.48;;
10667;SDS011;5382;42.136;24.796;2023-05-16T07:54:52;12.93;;;11.55;;
10667;SDS011;5382;42.136;24.796;2023-05-16T07:57:21;16.92;;;11.98;;
10667;SDS011;5382;42.136;24.796;2023-05-16T07:59:48;13.55;;;12.00;;
10667;SDS011;5382;42.136;24.796;2023-05-16T08:02:16;12.48;;;11.23;;
10667;SDS011;5382;42.136;24.796;2023-05-16T08:04:43;13.85;;;11.55;;
10667;SDS011;5382;42.136;24.796;2023-05-16T08:07:09;14.90;;;12.23;;
10667;SDS011;5382;42.136;24.796;2023-05-16T08:09:36;13.50;;;11.60;;
10667;SDS011;5382;42.136;24.796;2023-05-16T08:12:03;14.68;;;12.98;;
10667;SDS011;5382;42.136;24.796;2023-05-16T08:14:32;16.50;;;12.80;;
10667;SDS011;5382;42.136;24.796;2023-05-16T08:16:59;13.00;;;11.85;;
10667;SDS011;5382;42.136;24.796;2023-05-16T08:19:26;13.20;;;11.90;;
10667;SDS011;5382;42.136;24.796;2023-05-16T08:21:53;12.30;;;11.02;;
10667;SDS011;5382;42.136;24.796;2023-05-16T08:24:20;13.40;;;11.77;;
10667;SDS011;5382;42.136;24.796;2023-05-16T08:26:47;15.48;;;12.13;;
10667;SDS011;5382;42.136;24.796;2023-05-16T08:29:13;13.60;;;11.90;;
10667;SDS011;5382;42.136;24.796;2023-05-16T08:31:42;13.15;;;11.73;;
10667;SDS011;5382;42.136;24.796;2023-05-16T08:34:08;11.88;;;10.63;;
10667;SDS011;5382;42.136;24.796;2023-05-16T08:36:35;12.30;;;10.73;;
10667;SDS011;5382;42.136;24.796;2023-05-16T08:39:03;13.70;;;12.02;;
10667;SDS011;5382;42.136;24.796;2023-05-16T08:41:30;14.20;;;11.60;;
10667;SDS011;5382;42.136;24.796;2023-05-16T08:43:56;13.20;;;11.85;;
10667;SDS011;5382;42.136;24.796;2023-05-16T08:46:23;13.02;;;11.73;;
10667;SDS011;5382;42.136;24.796;2023-05-16T08:48:57;14.93;;;11.27;;
10667;SDS011;5382;42.136;24.796;2023-05-16T08:51:25;11.82;;;10.60;;
10667;SDS011;5382;42.136;24.796;2023-05-16T08:53:59;12.32;;;10.98;;
10667;SDS011;5382;42.136;24.796;2023-05-16T08:56:28;11.13;;;9.98;;
10667;SDS011;5382;42.136;24.796;2023-05-16T08:58:57;11.80;;;9.82;;
10667;SDS011;5382;42.136;24.796;2023-05-16T09:01:24;11.27;;;10.25;;
10667;SDS011;5382;42.136;24.796;2023-05-16T09:03:51;12.57;;;10.50;;
10667;SDS011;5382;42.136;24.796;2023-05-16T09:06:20;12.32;;;9.27;;
10667;SDS011;5382;42.136;24.796;2023-05-16T09:08:46;10.45;;;9.43;;
10667;SDS011;5382;42.136;24.796;2023-05-16T09:11:14;10.52;;;9.52;;
10667;SDS011;5382;42.136;24.796;2023-05-16T09:13:41;14.18;;;9.52;;
10667;SDS011;5382;42.136;24.796;2023-05-16T09:16:08;10.60;;;9.50;;
10667;SDS011;5382;42.136;24.796;2023-05-16T09:18:36;14.10;;;9.05;;
10667;SDS011;5382;42.136;24.796;2023-05-16T09:21:04;9.80;;;8.82;;
10667;SDS011;5382;42.136;24.796;2023-05-16T09:23:33;12.32;;;9.40;;
10667;SDS011;5382;42.136;24.796;2023-05-16T09:26:00;10.32;;;9.32;;
10667;SDS011;5382;42.136;24.796;2023-05-16T09:28:27;10.57;;;9.57;;
10667;SDS011;5382;42.136;24.796;2023-05-16T09:30:55;12.30;;;9.73;;
10667;SDS011;5382;42.136;24.796;2023-05-16T09:33:23;10.95;;;10.00;;
10667;SDS011;5382;42.136;24.796;2023-05-16T09:35:55;11.52;;;10.23;;
10667;SDS011;5382;42.136;24.796;2023-05-16T09:38:24;12.30;;;10.73;;
10667;SDS011;5382;42.136;24.796;2023-05-16T09:40:53;11.80;;;10.65;;
10667;SDS011;5382;42.136;24.796;2023-05-16T09:43:25;12.52;;;11.32;;
10667;SDS011;5382;42.136;24.796;2023-05-16T09:45:52;12.43;;;11.18;;
10667;SDS011;5382;42.136;24.796;2023-05-16T09:48:20;14.18;;;12.73;;
10667;SDS011;5382;42.136;24.796;2023-05-16T09:50:48;13.43;;;11.95;;
10667;SDS011;5382;42.136;24.796;2023-05-16T09:53:17;13.15;;;11.57;;
10667;SDS011;5382;42.136;24.796;2023-05-16T09:55:44;12.68;;;11.48;;
10667;SDS011;5382;42.136;24.796;2023-05-16T09:58:12;13.68;;;12.18;;
10667;SDS011;5382;42.136;24.796;2023-05-16T10:00:42;12.55;;;11.38;;
10667;SDS011;5382;42.136;24.796;2023-05-16T10:03:09;12.10;;;10.90;;
10667;SDS011;5382;42.136;24.796;2023-05-16T10:05:37;16.73;;;12.85;;
10667;SDS011;5382;42.136;24.796;2023-05-16T10:08:05;13.73;;;12.30;;
10667;SDS011;5382;42.136;24.796;2023-05-16T10:10:33;14.68;;;12.02;;
10667;SDS011;5382;42.136;24.796;2023-05-16T10:13:04;15.13;;;11.52;;
10667;SDS011;5382;42.136;24.796;2023-05-16T10:15:34;15.32;;;13.75;;
10667;SDS011;5382;42.136;24.796;2023-05-16T10:18:02;14.98;;;13.48;;
10667;SDS011;5382;42.136;24.796;2023-05-16T10:20:35;14.93;;;13.43;;
10667;SDS011;5382;42.136;24.796;2023-05-16T10:23:04;16.38;;;12.98;;
10667;SDS011;5382;42.136;24.796;2023-05-16T10:25:33;27.48;;;19.02;;
10667;SDS011;5382;42.136;24.796;2023-05-16T10:28:02;19.58;;;14.45;;
10667;SDS011;5382;42.136;24.796;2023-05-16T10:30:30;14.13;;;12.73;;
10667;SDS011;5382;42.136;24.796;2023-05-16T10:33:00;15.32;;;13.82;;
10667;SDS011;5382;42.136;24.796;2023-05-16T10:35:29;15.30;;;13.40;;
10667;SDS011;5382;42.136;24.796;2023-05-16T10:37:56;14.65;;;13.23;;
10667;SDS011;5382;42.136;24.796;2023-05-16T10:40:25;16.55;;;13.70;;
10667;SDS011;5382;42.136;24.796;2023-05-16T10:42:54;15.02;;;13.63;;
10667;SDS011;5382;42.136;24.796;2023-05-16T10:45:22;15.77;;;14.10;;
10667;SDS011;5382;42.136;24.796;2023-05-16T10:47:50;15.25;;;13.80;;
10667;SDS011;5382;42.136;24.796;2023-05-16T10:50:32;17.17;;;13.95;;
10667;SDS011;5382;42.136;24.796;2023-05-16T10:53:15;15.18;;;13.60;;
10667;SDS011;5382;42.136;24.796;2023-05-16T10:55:49;15.15;;;13.65;;
10667;SDS011;5382;42.136;24.796;2023-05-16T10:58:40;15.48;;;12.95;;
10667;SDS011;5382;42.136;24.796;2023-05-16T11:01:18;15.43;;;13.85;;
10667;SDS011;5382;42.136;24.796;2023-05-16T11:04:06;14.95;;;13.48;;
10667;SDS011;5382;42.136;24.796;2023-05-16T11:06:44;14.05;;;12.65;;
10667;SDS011;5382;42.136;24.796;2023-05-16T11:09:19;14.57;;;13.02;;
10667;SDS011;5382;42.136;24.796;2023-05-16T11:11:53;15.10;;;13.57;;
10667;SDS011;5382;42.136;24.796;2023-05-16T11:14:22;14.95;;;13.48;;
10667;SDS011;5382;42.136;24.796;2023-05-16T11:16:51;14.55;;;13.25;;
10667;SDS011;5382;42.136;24.796;2023-05-16T11:27:32;14.50;;;13.05;;
10667;SDS011;5382;42.136;24.796;2023-05-16T11:30:09;14.27;;;12.90;;
10667;SDS011;5382;42.136;24.796;2023-05-16T11:32:39;15.05;;;13.48;;
10667;SDS011;5382;42.136;24.796;2023-05-16T11:35:08;17.02;;;13.05;;
10667;SDS011;5382;42.136;24.796;2023-05-16T11:37:37;15.00;;;13.48;;
10667;SDS011;5382;42.136;24.796;2023-05-16T11:40:04;14.50;;;13.02;;
10667;SDS011;5382;42.136;24.796;2023-05-16T11:42:36;17.13;;;13.88;;
10667;SDS011;5382;42.136;24.796;2023-05-16T11:45:08;14.65;;;13.15;;
10667;SDS011;5382;42.136;24.796;2023-05-16T11:47:36;17.30;;;13.90;;
10667;SDS011;5382;42.136;24.796;2023-05-16T11:50:05;15.70;;;14.13;;
10667;SDS011;5382;42.136;24.796;2023-05-16T11:52:34;15.40;;;12.85;;
10667;SDS011;5382;42.136;24.796;2023-05-16T11:55:01;17.00;;;13.23;;
10667;SDS011;5382;42.136;24.796;2023-05-16T11:57:30;14.02;;;12.63;;
10667;SDS011;5382;42.136;24.796;2023-05-16T12:00:02;14.93;;;12.98;;
10667;SDS011;5382;42.136;24.796;2023-05-16T12:02:32;15.05;;;12.43;;
10667;SDS011;5382;42.136;24.796;2023-05-16T12:04:58;12.50;;;11.20;;
10667;SDS011;5382;42.136;24.796;2023-05-16T12:07:28;13.10;;;11.57;;
10667;SDS011;5382;42.136;24.796;2023-05-16T12:09:55;14.13;;;12.60;;
10667;SDS011;5382;42.136;24.796;2023-05-16T12:12:22;13.02;;;11.32;;
10667;SDS011;5382;42.136;24.796;2023-05-16T12:14:49;13.27;;;11.50;;
10667;SDS011;5382;42.136;24.796;2023-05-16T12:17:17;14.85;;;11.07;;
10667;SDS011;5382;42.136;24.796;2023-05-16T12:19:46;12.57;;;10.65;;
10667;SDS011;5382;42.136;24.796;2023-05-16T12:22:14;13.63;;;12.15;;
10667;SDS011;5382;42.136;24.796;2023-05-16T12:24:42;16.45;;;14.13;;
10667;SDS011;5382;42.136;24.796;2023-05-16T12:27:09;14.25;;;12.45;;
10667;SDS011;5382;42.136;24.796;2023-05-16T12:29:36;13.15;;;11.75;;
10667;SDS011;5382;42.136;24.796;2023-05-16T12:32:03;12.20;;;11.00;;
10667;SDS011;5382;42.136;24.796;2023-05-16T12:34:34;13.10;;;11.23;;
10667;SDS011;5382;42.136;24.796;2023-05-16T12:37:01;12.15;;;10.80;;
10667;SDS011;5382;42.136;24.796;2023-05-16T12:39:28;12.23;;;11.00;;
10667;SDS011;5382;42.136;24.796;2023-05-16T12:42:04;13.23;;;10.10;;
10667;SDS011;5382;42.136;24.796;2023-05-16T12:44:31;12.45;;;10.68;;
10667;SDS011;5382;42.136;24.796;2023-05-16T12:46:58;15.52;;;12.00;;
10667;SDS011;5382;42.136;24.796;2023-05-16T12:49:26;13.20;;;10.25;;
10667;SDS011;5382;42.136;24.796;2023-05-16T12:51:54;15.43;;;12.15;;
10667;SDS011;5382;42.136;24.796;2023-05-16T12:54:29;11.18;;;9.55;;
10667;SDS011;5382;42.136;24.796;2023-05-16T12:56:56;13.27;;;9.60;;
10667;SDS011;5382;42.136;24.796;2023-05-16T12:59:23;13.07;;;10.77;;
10667;SDS011;5382;42.136;24.796;2023-05-16T13:01:51;12.73;;;9.95;;
10667;SDS011;5382;42.136;24.796;2023-05-16T13:04:17;11.02;;;9.13;;
10667;SDS011;5382;42.136;24.796;2023-05-16T13:06:44;10.77;;;9.70;;
10667;SDS011;5382;42.136;24.796;2023-05-16T13:09:13;13.00;;;10.90;;
10667;SDS011;5382;42.136;24.796;2023-05-16T13:11:40;12.48;;;11.27;;
10667;SDS011;5382;42.136;24.796;2023-05-16T13:14:07;13.13;;;10.13;;
10667;SDS011;5382;42.136;24.796;2023-05-16T13:16:33;12.32;;;10.90;;
10667;SDS011;5382;42.136;24.796;2023-05-16T13:19:00;13.07;;;10.18;;
10667;SDS011;5382;42.136;24.796;2023-05-16T13:21:27;13.60;;;11.00;;
10667;SDS011;5382;42.136;24.796;2023-05-16T13:23:56;12.27;;;10.45;;
10667;SDS011;5382;42.136;24.796;2023-05-16T13:26:24;11.20;;;10.18;;
10667;SDS011;5382;42.136;24.796;2023-05-16T13:28:51;13.70;;;9.93;;
10667;SDS011;5382;42.136;24.796;2023-05-16T13:31:19;10.65;;;9.50;;
10667;SDS011;5382;42.136;24.796;2023-05-16T13:33:46;10.82;;;9.00;;
10667;SDS011;5382;42.136;24.796;2023-05-16T13:36:13;12.77;;;9.38;;
10667;SDS011;5382;42.136;24.796;2023-05-16T13:38:40;11.52;;;9.55;;
10667;SDS011;5382;42.136;24.796;2023-05-16T13:41:07;11.38;;;10.00;;
10667;SDS011;5382;42.136;24.796;2023-05-16T13:43:35;11.60;;;9.48;;
10667;SDS011;5382;42.136;24.796;2023-05-16T13:46:02;11.45;;;8.93;;
10667;SDS011;5382;42.136;24.796;2023-05-16T13:48:29;11.23;;;9.75;;
10667;SDS011;5382;42.136;24.796;2023-05-16T13:50:55;13.52;;;10.35;;
10667;SDS011;5382;42.136;24.796;2023-05-16T13:53:22;12.32;;;10.10;;
10667;SDS011;5382;42.136;24.796;2023-05-16T13:55:49;12.90;;;10.32;;
10667;SDS011;5382;42.136;24.796;2023-05-16T13:58:16;17.45;;;10.85;;
10667;SDS011;5382;42.136;24.796;2023-05-16T14:00:44;11.10;;;9.77;;
10667;SDS011;5382;42.136;24.796;2023-05-16T14:03:11;14.07;;;10.30;;
10667;SDS011;5382;42.136;24.796;2023-05-16T14:05:38;14.25;;;9.63;;
10667;SDS011;5382;42.136;24.796;2023-05-16T14:08:05;12.10;;;10.90;;
10667;SDS011;5382;42.136;24.796;2023-05-16T14:10:32;12.32;;;11.02;;
10667;SDS011;5382;42.136;24.796;2023-05-16T14:12:59;13.52;;;11.48;;
10667;SDS011;5382;42.136;24.796;2023-05-16T14:15:25;14.48;;;12.25;;
10667;SDS011;5382;42.136;24.796;2023-05-16T14:17:54;17.13;;;14.73;;
10667;SDS011;5382;42.136;24.796;2023-05-16T14:20:20;16.52;;;14.32;;
10667;SDS011;5382;42.136;24.796;2023-05-16T14:22:47;19.73;;;15.07;;
10667;SDS011;5382;42.136;24.796;2023-05-16T14:25:14;21.80;;;15.25;;
10667;SDS011;5382;42.136;24.796;2023-05-16T14:27:41;17.30;;;15.40;;
10667;SDS011;5382;42.136;24.796;2023-05-16T14:30:08;15.75;;;14.05;;
10667;SDS011;5382;42.136;24.796;2023-05-16T14:32:35;16.75;;;12.73;;
10667;SDS011;5382;42.136;24.796;2023-05-16T14:35:04;14.20;;;12.52;;
10667;SDS011;5382;42.136;24.796;2023-05-16T14:37:33;16.27;;;12.30;;